Time;durP1;ratioP1;P1;durP2;ratioP2;P2;SDS_P1;SDS_P2;PMS_P1;PMS_P2;Temp;Humidity;BMP_temperature;BMP_pressure;BME280_temperature;BME280_humidity;BME280_pressure;Samples;Min_cycle;Max_cycle;Signal;HPM_P1;HPM_P2
2022/12/23 00:03:01;;;;;;;3.88;1.88;;;1.70;99.90;;;;;;20480542;23;20200;-46
2022/12/23 00:23:26;;;;;;;5.07;2.35;;;1.80;99.90;;;;;;20363906;23;20069;-52
2022/12/23 00:33:35;;;;;;;5.05;2.70;;;1.40;99.90;;;;;;20376974;23;20069;-48
2022/12/23 00:43:36;;;;;;;5.82;3.50;;;1.30;99.90;;;;;;20454947;23;20105;-50
2022/12/23 00:53:38;;;;;;;0.80;0.13;;;1.50;99.90;;;;;;20451884;23;20108;-48
2022/12/23 01:14:04;;;;;;;0.60;0.20;;;6.20;99.90;;;;;;20491259;23;20056;31
2022/12/23 01:24:07;;;;;;;0.40;0.20;;;6.30;99.90;;;;;;20414119;23;20088;-46
2022/12/23 01:34:09;;;;;;;2.42;0.30;;;6.90;99.90;;;;;;20462191;23;20056;-54
2022/12/23 01:54:44;;;;;;;2.92;1.08;;;5.60;99.90;;;;;;20309250;23;20527;-41
2022/12/23 02:04:48;;;;;;;2.17;1.30;;;4.80;99.90;;;;;;20424525;23;20056;-53
2022/12/23 02:25:39;;;;;;;5.82;3.08;;;4.00;99.90;;;;;;20371639;23;20060;-45
2022/12/23 02:36:07;;;;;;;4.25;2.90;;;4.10;99.90;;;;;;20327192;23;20586;-54
2022/12/23 02:46:38;;;;;;;8.00;5.07;;;3.50;99.90;;;;;;20348951;23;20076;-43
2022/12/23 02:56:45;;;;;;;10.93;6.18;;;2.20;99.90;;;;;;20341687;23;20372;-49
2022/12/23 03:06:55;;;;;;;6.15;3.35;;;1.60;99.90;;;;;;20406465;23;20116;-41
2022/12/23 03:17:21;;;;;;;5.07;2.90;;;1.20;99.90;;;;;;20402516;23;20488;-51
2022/12/23 03:27:29;;;;;;;15.45;10.00;;;1.90;99.90;;;;;;20384380;23;20101;-42
2022/12/23 03:37:36;;;;;;;26.25;14.70;;;1.40;99.90;;;;;;20378743;23;20378;-52
2022/12/23 03:47:45;;;;;;;28.98;15.77;;;0.80;99.90;;;;;;20440959;23;20077;-41
2022/12/23 03:58:39;;;;;;;35.28;17.23;;;0.80;99.90;;;;;;20395764;23;20203;-42
2022/12/23 04:08:42;;;;;;;13.82;7.82;;;0.90;99.90;;;;;;20430978;23;20027;-43
2022/12/23 04:18:54;;;;;;;122.03;18.25;;;0.80;99.90;;;;;;20420444;23;20064;-47
2022/12/23 04:28:56;;;;;;;1374.10;74.82;;;1.20;99.90;;;;;;20368033;23;20056;-51
2022/12/23 04:38:57;;;;;;;25.65;15.30;;;0.60;99.90;;;;;;20475744;23;20124;-42
2022/12/23 04:48:59;;;;;;;24.50;14.43;;;0.30;99.90;;;;;;20457021;23;20060;-48
2022/12/23 04:59:01;;;;;;;24.70;15.07;;;0.10;99.90;;;;;;20453906;23;20115;-41
2022/12/23 05:09:09;;;;;;;20.77;12.63;;;0.00;99.90;;;;;;20443758;23;20064;31
2022/12/23 05:19:11;;;;;;;20.42;12.00;;;-0.10;99.90;;;;;;20333031;23;20100;-52
2022/12/23 05:29:13;;;;;;;19.75;10.57;;;-0.20;99.90;;;;;;20433878;23;20590;-47
2022/12/23 05:39:15;;;;;;;10.15;6.45;;;-0.30;99.90;;;;;;20400797;23;20057;-51
2022/12/23 05:49:16;;;;;;;14.27;8.52;;;-0.30;99.90;;;;;;20436165;23;20429;-42
2022/12/23 05:59:18;;;;;;;15.45;9.80;;;-0.30;99.90;;;;;;20435748;23;20064;-53
2022/12/23 06:09:20;;;;;;;14.65;8.50;;;-0.30;99.90;;;;;;20410675;23;20116;-55
2022/12/23 06:19:21;;;;;;;9.98;6.28;;;-0.40;99.90;;;;;;20432336;23;20403;-42
2022/12/23 06:29:23;;;;;;;10.30;6.10;;;-0.40;99.90;;;;;;20446716;23;20195;-54
2022/12/23 06:39:25;;;;;;;11.18;6.05;;;-0.50;99.90;;;;;;20444860;23;20052;-49
2022/12/23 06:49:31;;;;;;;7.65;4.78;;;-0.40;99.90;;;;;;20439587;23;20101;31
2022/12/23 06:59:32;;;;;;;9.90;5.18;;;-0.20;99.90;;;;;;20335662;23;1250620;-53
2022/12/23 07:09:34;;;;;;;8.43;4.40;;;-0.10;99.90;;;;;;20446818;23;20093;-41
2022/12/23 07:19:36;;;;;;;8.77;4.50;;;0.20;99.90;;;;;;20407990;23;20112;-53
2022/12/23 07:29:37;;;;;;;5.03;3.45;;;0.60;99.90;;;;;;20422411;23;20085;-47
2022/12/23 07:39:40;;;;;;;7.10;3.90;;;0.80;99.90;;;;;;20438667;23;20064;-49
2022/12/23 07:49:42;;;;;;;7.43;3.65;;;1.10;99.90;;;;;;20405103;23;20507;-52
2022/12/23 07:59:44;;;;;;;5.25;3.20;;;1.40;99.90;;;;;;20456400;23;20052;-41
2022/12/23 08:09:46;;;;;;;4.28;2.90;;;1.60;99.90;;;;;;20356319;23;20053;-60
2022/12/23 08:19:48;;;;;;;5.00;3.30;;;1.80;99.90;;;;;;20194232;29;20492;-59
2022/12/23 08:29:49;;;;;;;3.88;2.30;;;2.90;99.90;;;;;;20192643;29;20033;-57
2022/12/23 08:39:51;;;;;;;2.97;1.73;;;4.00;99.90;;;;;;20194371;29;20504;-62
2022/12/23 08:49:53;;;;;;;8.95;2.95;;;4.80;99.90;;;;;;20192989;29;20041;-58
2022/12/23 08:59:54;;;;;;;4.57;2.72;;;5.70;99.90;;;;;;20176606;29;20049;-58
2022/12/23 09:09:56;;;;;;;4.05;2.92;;;5.90;99.90;;;;;;20172676;29;20045;-58
2022/12/23 09:19:57;;;;;;;5.55;3.13;;;6.10;99.90;;;;;;20190630;29;20033;-57
2022/12/23 09:29:59;;;;;;;3.78;1.92;;;6.30;99.90;;;;;;20190570;29;20041;-61
2022/12/23 09:40:02;;;;;;;5.28;3.70;;;6.70;99.90;;;;;;20186315;29;20532;-58
2022/12/23 09:50:20;;;;;;;6.18;4.57;;;6.80;99.90;;;;;;20189092;29;20070;-58
2022/12/23 10:00:22;;;;;;;8.13;4.90;;;6.90;99.90;;;;;;20188198;29;20053;-62
2022/12/23 10:10:27;;;;;;;7.70;4.68;;;7.00;99.90;;;;;;20185604;29;20411;-58
2022/12/23 10:20:51;;;;;;;8.48;5.25;;;7.10;99.90;;;;;;20186149;29;20036;-58
2022/12/23 10:31:02;;;;;;;10.10;5.57;;;7.00;99.90;;;;;;20186350;29;20114;-56
2022/12/23 10:41:22;;;;;;;8.00;5.80;;;7.40;99.90;;;;;;20183353;29;20097;-55
2022/12/23 10:51:45;;;;;;;9.03;6.23;;;7.50;99.90;;;;;;20185046;29;20041;-56
2022/12/23 11:01:55;;;;;;;8.00;5.75;;;7.80;99.90;;;;;;20184851;29;20568;-58
2022/12/23 11:11:56;;;;;;;7.70;5.97;;;7.80;99.90;;;;;;20180128;29;20584;-59
2022/12/23 11:22:00;;;;;;;9.73;6.57;;;7.80;99.90;;;;;;20182525;29;20105;-60
2022/12/23 11:32:12;;;;;;;8.77;5.82;;;8.00;99.90;;;;;;20166936;29;20457;-60
2022/12/23 11:42:23;;;;;;;8.88;6.25;;;8.70;99.90;;;;;;20182948;29;20320;-60
2022/12/23 11:52:27;;;;;;;3.15;2.03;;;8.80;99.90;;;;;;20182492;29;20118;-61
2022/12/23 12:02:35;;;;;;;8.68;6.25;;;8.30;99.90;;;;;;20182529;29;20121;-60
2022/12/23 12:12:39;;;;;;;5.15;3.25;;;9.20;99.90;;;;;;20163977;29;20053;-62
2022/12/23 12:22:48;;;;;;;7.13;4.63;;;8.60;99.90;;;;;;20181749;29;20140;-59
2022/12/23 12:33:16;;;;;;;9.35;6.10;;;8.60;99.90;;;;;;20178562;29;20045;-58
2022/12/23 12:43:31;;;;;;;18.02;11.10;;;8.80;99.90;;;;;;20166613;29;20082;-60
2022/12/23 12:53:34;;;;;;;10.50;7.30;;;8.90;99.90;;;;;;20193485;29;20049;-59
2022/12/23 13:03:51;;;;;;;13.25;9.57;;;7.50;99.90;;;;;;20189046;29;20387;-56
2022/12/23 13:14:14;;;;;;;8.02;5.63;;;6.80;99.90;;;;;;20190815;29;20446;-58
2022/12/23 13:25:01;;;;;;;14.43;10.40;;;7.20;99.90;;;;;;20190409;29;20045;-61
2022/12/23 13:35:18;;;;;;;15.27;10.60;;;7.70;99.90;;;;;;19791905;29;20069;-62
2022/12/23 13:45:22;;;;;;;20.10;13.10;;;6.50;99.90;;;;;;19781381;29;20051;-60
2022/12/23 13:55:45;;;;;;;20.48;13.50;;;5.80;99.90;;;;;;19795659;30;20120;-61
2022/12/23 14:05:51;;;;;;;18.17;11.18;;;5.30;99.90;;;;;;19916533;29;20583;-60
2022/12/23 14:16:13;;;;;;;16.35;10.23;;;4.60;99.90;;;;;;20183897;29;20468;-60
2022/12/23 14:26:32;;;;;;;15.05;9.10;;;4.10;99.90;;;;;;20186350;29;20103;-60
2022/12/23 14:36:34;;;;;;;17.13;10.68;;;4.00;99.90;;;;;;20185467;29;20078;-61
2022/12/23 14:46:36;;;;;;;19.58;12.60;;;3.70;99.90;;;;;;20185361;29;20048;-60
2022/12/23 14:56:38;;;;;;;16.02;10.05;;;3.60;99.90;;;;;;20184885;29;20047;-60
2022/12/23 15:06:43;;;;;;;10.85;7.30;;;3.50;99.90;;;;;;20184161;29;20052;-60
2022/12/23 15:16:45;;;;;;;3.85;2.00;;;3.50;99.90;;;;;;20180570;29;20130;-60
2022/12/23 15:26:52;;;;;;;14.80;9.60;;;5.20;99.90;;;;;;20183613;29;20036;-60
2022/12/23 15:36:54;;;;;;;16.33;9.57;;;5.10;99.90;;;;;;20182870;29;20045;-60
2022/12/23 15:46:56;;;;;;;17.63;11.10;;;3.70;99.90;;;;;;20183189;29;20096;-60
2022/12/23 15:57:00;;;;;;;16.45;10.18;;;3.10;99.90;;;;;;20165732;29;20056;-62
2022/12/23 16:07:02;;;;;;;19.33;12.55;;;3.00;99.90;;;;;;20178792;29;20085;-59
2022/12/23 16:17:08;;;;;;;13.75;8.38;;;3.00;99.90;;;;;;20178454;29;20108;-61
2022/12/23 16:27:16;;;;;;;23.10;13.65;;;2.70;99.90;;;;;;20195299;29;20148;-59
2022/12/23 16:37:18;;;;;;;21.95;13.13;;;2.90;99.90;;;;;;20177058;29;20040;-60
2022/12/23 16:47:19;;;;;;;25.60;15.60;;;2.60;99.90;;;;;;20194103;29;20041;-59
2022/12/23 16:57:21;;;;;;;12.23;7.07;;;2.60;99.90;;;;;;20193037;29;20045;-60
2022/12/23 17:07:24;;;;;;;26.35;15.55;;;2.70;99.90;;;;;;20191901;29;20128;-60
2022/12/23 17:17:25;;;;;;;17.50;10.38;;;3.10;99.90;;;;;;20171170;29;20121;-60
2022/12/23 17:27:27;;;;;;;5.03;2.67;;;2.70;99.90;;;;;;20190560;29;20041;-59
2022/12/23 17:37:30;;;;;;;2.70;1.60;;;3.10;99.90;;;;;;20172888;29;20586;-61
2022/12/23 17:47:32;;;;;;;5.20;3.28;;;3.90;99.90;;;;;;20189609;29;20045;-60
2022/12/23 17:57:33;;;;;;;6.57;3.47;;;3.90;99.90;;;;;;20188378;29;20044;-60
2022/12/23 18:07:35;;;;;;;30.75;17.20;;;3.10;99.90;;;;;;20171082;29;20461;-60
2022/12/23 18:17:37;;;;;;;52.33;25.73;;;2.80;99.90;;;;;;20184642;29;20093;-61
2022/12/23 18:27:38;;;;;;;21.23;9.40;;;2.40;99.90;;;;;;20185863;29;20053;-60
2022/12/23 18:37:40;;;;;;;46.05;23.98;;;2.10;99.90;;;;;;20169003;29;20045;-61
2022/12/23 18:47:42;;;;;;;769.78;44.58;;;2.20;99.90;;;;;;20185313;29;20430;-60
2022/12/23 18:57:45;;;;;;;1481.85;84.20;;;1.90;99.90;;;;;;20167575;29;20045;-60
2022/12/23 19:07:48;;;;;;;646.47;54.40;;;1.80;99.90;;;;;;20183658;29;20571;-60
2022/12/23 19:17:50;;;;;;;471.60;49.15;;;1.90;99.90;;;;;;20183013;29;20049;-59
2022/12/23 19:27:52;;;;;;;879.92;66.53;;;2.00;99.90;;;;;;20193353;29;20041;-61
2022/12/23 19:37:54;;;;;;;610.00;53.58;;;1.90;99.90;;;;;;20197171;23;20423;-60
2022/12/23 19:47:56;;;;;;;470.75;47.35;;;2.10;99.90;;;;;;20181916;29;20044;-61
2022/12/23 19:57:58;;;;;;;925.05;65.07;;;2.10;99.90;;;;;;20197771;29;20155;-61
2022/12/23 20:08:00;;;;;;;218.35;37.58;;;2.10;99.90;;;;;;20195388;29;20049;-60
2022/12/23 20:18:02;;;;;;;406.02;43.53;;;2.10;99.90;;;;;;20195965;29;20048;-60
2022/12/23 20:28:04;;;;;;;933.65;57.38;;;2.10;99.90;;;;;;20194774;29;20567;-61
2022/12/23 20:38:06;;;;;;;1188.05;79.00;;;2.20;99.90;;;;;;20194365;29;20480;-61
2022/12/23 20:48:09;;;;;;;783.97;50.03;;;2.10;99.90;;;;;;20193665;29;20097;-61
2022/12/23 21:08:31;;;;;;;239.30;32.53;;;1.90;99.90;;;;;;20192833;29;20498;-60
2022/12/23 21:18:33;;;;;;;223.63;28.13;;;1.60;99.90;;;;;;20191261;29;20478;-59
2022/12/23 21:28:36;;;;;;;810.75;57.45;;;1.50;99.90;;;;;;20186877;29;20109;-60
2022/12/23 21:38:41;;;;;;;354.02;32.28;;;1.30;99.90;;;;;;20190244;29;20045;-61
2022/12/23 21:48:43;;;;;;;175.63;31.02;;;1.40;99.90;;;;;;20186931;29;20511;-61
2022/12/23 21:58:45;;;;;;;277.77;32.83;;;1.50;99.90;;;;;;20187981;29;20033;-58
2022/12/23 22:08:48;;;;;;;531.60;42.70;;;1.60;99.90;;;;;;20167857;29;20468;-60
2022/12/23 22:18:51;;;;;;;291.45;35.00;;;1.70;99.90;;;;;;20186234;29;20041;-60
2022/12/23 22:28:57;;;;;;;713.03;55.45;;;1.70;99.90;;;;;;20187580;29;20063;-60
2022/12/23 22:39:00;;;;;;;78.85;26.30;;;1.80;99.90;;;;;;20185723;29;20049;-60
2022/12/23 22:49:02;;;;;;;268.25;28.77;;;1.80;99.90;;;;;;20181747;29;20110;-60
2022/12/23 22:59:04;;;;;;;222.23;32.45;;;1.70;99.90;;;;;;20167954;29;20040;-61
2022/12/23 23:09:08;;;;;;;59.10;22.13;;;1.60;99.90;;;;;;20166930;29;20070;-61
2022/12/23 23:19:10;;;;;;;247.95;30.30;;;1.60;99.90;;;;;;20166475;29;20097;-60
2022/12/23 23:29:12;;;;;;;237.07;23.90;;;1.50;99.90;;;;;;20182434;29;20057;-60
2022/12/23 23:39:14;;;;;;;229.93;29.42;;;1.50;99.90;;;;;;20182937;29;20108;-59
2022/12/23 23:49:15;;;;;;;284.80;27.15;;;1.40;99.90;;;;;;20182839;29;20511;-60
2022/12/23 23:59:17;;;;;;;153.55;21.15;;;1.20;99.90;;;;;;20165740;29;20048;-60
